createdAt,value
2023-11-10T00:00:16.502Z,2.40
2023-11-10T00:02:45.612Z,4.27
2023-11-10T00:05:14.585Z,2.07
2023-11-10T00:07:43.226Z,2.17
2023-11-10T00:10:12.363Z,2.53
2023-11-10T00:12:40.852Z,3.10
2023-11-10T00:15:11.451Z,2.57
2023-11-10T00:17:41.337Z,2.30
2023-11-10T00:20:10.845Z,2.50
2023-11-10T00:22:40.270Z,3.00
2023-11-10T00:25:09.538Z,2.23
2023-11-10T00:27:38.184Z,2.43
2023-11-10T00:30:07.925Z,2.60
2023-11-10T00:32:40.366Z,3.43
2023-11-10T00:35:11.319Z,2.80
2023-11-10T00:37:39.903Z,2.90
2023-11-10T00:40:10.111Z,2.40
2023-11-10T00:42:40.105Z,2.73
2023-11-10T00:45:09.382Z,2.10
2023-11-10T00:47:39.390Z,2.33
2023-11-10T00:50:09.611Z,2.00
2023-11-10T00:52:38.428Z,3.07
2023-11-10T00:55:08.353Z,2.47
2023-11-10T00:57:36.982Z,2.13
2023-11-10T01:00:07.582Z,2.30
2023-11-10T01:02:36.564Z,2.40
2023-11-10T01:05:08.525Z,2.23
2023-11-10T01:07:37.028Z,3.17
2023-11-10T01:10:06.760Z,1.70
2023-11-10T01:12:35.234Z,1.90
2023-11-10T01:15:03.688Z,2.30
2023-11-10T01:17:33.330Z,2.43
2023-11-10T01:20:02.124Z,4.23
2023-11-10T01:22:31.863Z,1.83
2023-11-10T01:25:00.472Z,1.90
2023-11-10T01:27:29.352Z,4.03
2023-11-10T01:29:57.756Z,5.07
2023-11-10T01:32:26.163Z,1.90
2023-11-10T01:34:56.122Z,3.80
2023-11-10T01:37:24.543Z,3.73
2023-11-10T01:39:55.163Z,2.57
2023-11-10T01:42:24.359Z,2.00
2023-11-10T01:44:52.795Z,2.73
2023-11-10T01:47:21.240Z,3.50
2023-11-10T01:49:49.682Z,2.50
2023-11-10T01:52:18.520Z,2.20
2023-11-10T01:54:48.015Z,3.30
2023-11-10T01:57:17.860Z,2.27
2023-11-10T01:59:48.938Z,2.57
2023-11-10T02:02:16.564Z,4.03
2023-11-10T02:04:46.492Z,2.73
2023-11-10T02:07:14.909Z,1.90
2023-11-10T02:09:45.755Z,2.93
2023-11-10T02:12:16.002Z,1.90
2023-11-10T02:14:45.999Z,2.87
2023-11-10T02:17:15.499Z,3.67
2023-11-10T02:19:44.273Z,1.60
2023-11-10T02:22:20.666Z,1.87
2023-11-10T02:24:53.371Z,5.50
2023-11-10T02:27:27.976Z,2.10
2023-11-10T02:29:56.378Z,1.53
2023-11-10T02:32:24.775Z,4.33
2023-11-10T02:34:53.142Z,1.67
2023-11-10T02:37:22.016Z,1.70
2023-11-10T02:39:55.330Z,2.30
2023-11-10T02:42:27.199Z,1.90
2023-11-10T02:44:56.230Z,1.50
2023-11-10T02:47:24.722Z,2.30
2023-11-10T02:49:53.155Z,1.20
2023-11-10T02:52:21.479Z,1.67
2023-11-10T02:54:50.418Z,1.90
2023-11-10T02:57:19.819Z,4.20
2023-11-10T02:59:50.180Z,1.27
2023-11-10T03:02:18.987Z,1.80
2023-11-10T03:04:47.679Z,2.13
2023-11-10T03:07:16.209Z,1.90
2023-11-10T03:09:45.946Z,1.30
2023-11-10T03:12:14.610Z,2.07
2023-11-10T03:14:43.522Z,3.37
2023-11-10T03:17:13.796Z,1.40
2023-11-10T03:19:44.075Z,1.97
2023-11-10T03:22:13.838Z,1.43
2023-11-10T03:24:42.639Z,0.80
2023-11-10T03:27:13.069Z,1.20
2023-11-10T03:29:42.482Z,1.60
2023-11-10T03:32:12.356Z,0.87
2023-11-10T03:34:41.573Z,2.23
2023-11-10T03:37:10.856Z,1.37
2023-11-10T03:39:39.379Z,1.97
2023-11-10T03:42:10.078Z,1.10
2023-11-10T03:44:38.557Z,4.03
2023-11-10T03:47:07.365Z,1.23
2023-11-10T03:49:39.355Z,2.67
2023-11-10T03:52:08.236Z,2.40
2023-11-10T03:54:37.015Z,1.97
2023-11-10T03:57:05.985Z,2.17
2023-11-10T03:59:34.391Z,4.60
2023-11-10T04:02:04.009Z,1.50
2023-11-10T04:04:33.115Z,2.37
2023-11-10T04:07:05.115Z,4.20
2023-11-10T04:09:35.400Z,1.50
2023-11-10T04:12:04.900Z,2.87
2023-11-10T04:14:33.926Z,2.03
2023-11-10T04:17:02.459Z,2.27
2023-11-10T04:19:31.166Z,2.13
2023-11-10T04:21:59.594Z,2.50
2023-11-10T04:24:29.379Z,2.03
2023-11-10T04:26:59.960Z,2.53
2023-11-10T04:29:29.205Z,2.87
2023-11-10T04:31:57.795Z,1.43
2023-11-10T04:34:26.277Z,1.80
2023-11-10T04:36:55.392Z,4.83
2023-11-10T04:39:24.143Z,3.30
2023-11-10T04:41:55.610Z,3.67
2023-11-10T04:44:26.348Z,4.17
2023-11-10T04:46:54.714Z,3.10
2023-11-10T04:49:23.091Z,2.57
2023-11-10T04:51:53.960Z,2.47
2023-11-10T04:54:23.438Z,3.43
2023-11-10T04:56:53.358Z,2.10
2023-11-10T04:59:21.738Z,3.10
2023-11-10T05:01:50.543Z,3.00
2023-11-10T05:04:19.013Z,1.80
2023-11-10T05:06:47.606Z,4.20
2023-11-10T05:09:16.137Z,1.80
2023-11-10T05:11:47.528Z,2.57
2023-11-10T05:14:17.534Z,3.83
2023-11-10T05:16:46.179Z,1.80
2023-11-10T05:19:14.776Z,3.57
2023-11-10T05:21:43.196Z,1.33
2023-11-10T05:24:11.899Z,2.53
2023-11-10T05:26:41.956Z,2.53
2023-11-10T05:29:11.084Z,1.97
2023-11-10T05:31:41.146Z,3.03
2023-11-10T05:34:09.753Z,2.13
2023-11-10T05:36:38.136Z,2.30
2023-11-10T05:39:07.653Z,2.73
2023-11-10T05:41:36.071Z,6.37
2023-11-10T05:44:05.006Z,3.97
2023-11-10T05:46:33.519Z,2.50
2023-11-10T05:49:03.473Z,2.53
2023-11-10T05:51:31.917Z,3.53
2023-11-10T05:54:00.496Z,4.70
2023-11-10T05:56:28.889Z,3.03
2023-11-10T05:58:59.475Z,3.80
2023-11-10T06:01:29.383Z,2.70
2023-11-10T06:03:58.159Z,3.43
2023-11-10T06:06:28.774Z,2.90
2023-11-10T06:08:57.155Z,2.40
2023-11-10T06:11:26.088Z,2.67
2023-11-10T06:13:56.436Z,2.40
2023-11-10T06:16:25.130Z,2.27
2023-11-10T06:18:53.581Z,1.50
2023-11-10T06:21:24.390Z,1.40
2023-11-10T06:23:54.587Z,1.40
2023-11-10T06:26:22.997Z,1.30
2023-11-10T06:28:51.855Z,2.17
2023-11-10T06:31:21.499Z,3.00
2023-11-10T06:33:50.534Z,3.03
2023-11-10T06:36:19.396Z,1.20
2023-11-10T06:38:48.976Z,1.10
2023-11-10T06:41:19.812Z,2.10
2023-11-10T06:43:48.415Z,1.17
2023-11-10T06:46:23.641Z,1.20
2023-11-10T06:48:53.267Z,1.43
2023-11-10T06:51:22.784Z,1.10
2023-11-10T06:53:51.493Z,2.50
2023-11-10T06:56:21.197Z,1.83
2023-11-10T06:58:49.628Z,1.80
2023-11-10T07:01:18.422Z,1.70
2023-11-10T07:03:47.796Z,2.07
2023-11-10T07:06:16.256Z,1.67
2023-11-10T07:08:44.893Z,1.50
2023-11-10T07:11:15.844Z,4.23
2023-11-10T07:13:47.105Z,1.83
2023-11-10T07:16:16.352Z,1.67
2023-11-10T07:18:44.908Z,1.60
2023-11-10T07:21:14.999Z,1.73
2023-11-10T07:23:44.210Z,2.40
2023-11-10T07:26:13.774Z,3.07
2023-11-10T07:28:42.337Z,3.60
2023-11-10T07:31:12.434Z,3.03
2023-11-10T07:33:43.353Z,4.47
2023-11-10T07:36:13.681Z,2.10
2023-11-10T07:38:42.115Z,3.47
2023-11-10T07:41:10.490Z,1.73
2023-11-10T07:43:38.862Z,2.33
2023-11-10T07:46:07.323Z,2.53
2023-11-10T07:48:38.943Z,1.60
2023-11-10T07:51:07.512Z,3.10
2023-11-10T07:53:37.198Z,1.43
2023-11-10T07:56:06.069Z,2.30
2023-11-10T07:58:34.355Z,2.13
2023-11-10T08:01:03.680Z,1.67
2023-11-10T08:03:32.061Z,1.40
2023-11-10T08:06:01.950Z,2.40
2023-11-10T08:08:30.340Z,1.40
2023-11-10T08:10:58.725Z,1.63
2023-11-10T08:13:27.077Z,2.03
2023-11-10T08:15:55.573Z,1.93
2023-11-10T08:18:24.928Z,2.17
2023-11-10T08:20:53.436Z,3.33
2023-11-10T08:23:23.605Z,1.37
2023-11-10T08:25:52.272Z,3.13
2023-11-10T08:28:20.745Z,2.80
2023-11-10T08:30:49.346Z,1.40
2023-11-10T08:33:17.755Z,2.83
2023-11-10T08:35:46.519Z,2.47
2023-11-10T08:38:15.902Z,1.40
2023-11-10T08:40:46.033Z,1.20
2023-11-10T08:43:15.880Z,1.10
2023-11-10T08:45:44.366Z,2.57
2023-11-10T08:48:12.745Z,1.60
2023-11-10T08:50:41.203Z,1.20
2023-11-10T08:53:10.409Z,1.87
2023-11-10T08:55:39.548Z,2.13
2023-11-10T08:58:09.326Z,1.20
2023-11-10T09:00:37.922Z,1.43
2023-11-10T09:03:06.952Z,3.10
2023-11-10T09:05:35.323Z,1.80
2023-11-10T09:08:04.280Z,2.20
2023-11-10T09:10:32.540Z,2.57
2023-11-10T09:13:00.982Z,1.30
2023-11-10T09:15:30.827Z,1.87
2023-11-10T09:17:59.348Z,2.23
2023-11-10T09:20:27.714Z,0.90
2023-11-10T09:22:57.065Z,3.50
2023-11-10T09:25:26.207Z,3.93
2023-11-10T09:27:57.602Z,1.13
2023-11-10T09:30:28.544Z,3.00
2023-11-10T09:32:58.709Z,2.07
2023-11-10T09:35:27.469Z,1.40
2023-11-10T09:37:57.988Z,2.03
2023-11-10T09:40:26.439Z,3.10
2023-11-10T09:42:57.919Z,2.23
2023-11-10T09:45:28.804Z,1.67
2023-11-10T09:48:00.243Z,1.20
2023-11-10T09:50:30.837Z,1.57
2023-11-10T09:53:01.495Z,1.77
2023-11-10T09:55:30.813Z,4.13
2023-11-10T09:58:00.332Z,1.90
2023-11-10T10:00:29.861Z,3.33
2023-11-10T10:02:59.735Z,1.50
2023-11-10T10:05:28.280Z,2.70
2023-11-10T10:07:56.569Z,2.70
2023-11-10T10:10:26.279Z,6.97
2023-11-10T10:12:55.214Z,3.23
2023-11-10T10:15:28.302Z,2.43
2023-11-10T10:17:56.665Z,3.50
2023-11-10T10:20:26.508Z,3.70
2023-11-10T10:22:54.856Z,4.27
2023-11-10T10:25:23.325Z,2.77
2023-11-10T10:27:52.730Z,2.30
2023-11-10T10:30:21.561Z,1.80
2023-11-10T10:32:51.576Z,3.10
2023-11-10T10:35:19.970Z,2.60
2023-11-10T10:37:54.680Z,2.83
2023-11-10T10:40:26.158Z,1.77
2023-11-10T10:42:56.914Z,3.47
2023-11-10T10:45:30.438Z,1.83
2023-11-10T10:48:04.917Z,2.23
2023-11-10T10:50:35.605Z,4.23
2023-11-10T10:53:06.803Z,4.07
2023-11-10T10:55:37.503Z,3.63
2023-11-10T10:58:06.441Z,3.30
2023-11-10T11:00:34.913Z,2.30
2023-11-10T11:03:24.999Z,1.80
2023-11-10T11:06:07.622Z,1.93
2023-11-10T11:08:58.301Z,1.40
2023-11-10T11:11:40.289Z,1.70
2023-11-10T11:14:32.694Z,2.50
2023-11-10T11:17:37.326Z,4.63
2023-11-10T11:20:08.046Z,1.93
2023-11-10T11:22:39.492Z,2.13
2023-11-10T11:25:10.876Z,1.50
2023-11-10T11:27:39.588Z,1.53
2023-11-10T11:30:10.076Z,1.40
2023-11-10T11:32:41.466Z,1.33
2023-11-10T11:35:16.036Z,1.37
2023-11-10T11:37:47.244Z,1.20
2023-11-10T11:40:17.164Z,1.87
2023-11-10T11:42:46.041Z,2.90
2023-11-10T11:45:15.467Z,1.67
2023-11-10T11:47:45.026Z,1.87
2023-11-10T11:50:13.812Z,3.70
2023-11-10T11:52:42.467Z,1.47
2023-11-10T11:55:11.427Z,1.27
2023-11-10T11:57:43.667Z,2.00
2023-11-10T12:00:14.245Z,1.00
2023-11-10T12:02:42.648Z,1.05
2023-11-10T12:05:14.908Z,2.33
2023-11-10T12:07:44.292Z,1.52
2023-11-10T12:10:13.826Z,1.80
2023-11-10T12:12:46.349Z,1.98
2023-11-10T12:15:17.756Z,2.40
2023-11-10T12:17:47.332Z,1.87
2023-11-10T12:20:15.816Z,1.30
2023-11-10T12:22:54.708Z,2.37
2023-11-10T12:25:23.964Z,1.33
2023-11-10T12:27:55.508Z,2.03
2023-11-10T12:30:24.299Z,2.90
2023-11-10T12:32:54.491Z,2.20
2023-11-10T12:35:24.811Z,1.77
2023-11-10T12:37:54.454Z,1.70
2023-11-10T12:40:23.826Z,1.63
2023-11-10T12:42:52.172Z,2.77
2023-11-10T12:45:22.249Z,1.73
2023-11-10T12:47:59.974Z,3.70
2023-11-10T12:50:32.146Z,2.40
2023-11-10T12:53:00.457Z,2.30
2023-11-10T12:55:29.416Z,2.30
2023-11-10T12:57:59.443Z,2.17
2023-11-10T13:00:29.309Z,2.30
2023-11-10T13:02:56.919Z,3.47
2023-11-10T13:05:25.878Z,2.53
2023-11-10T13:07:54.412Z,2.87
2023-11-10T13:10:22.945Z,2.70
2023-11-10T13:12:54.046Z,2.13
2023-11-10T13:15:23.303Z,3.83
2023-11-10T13:17:53.060Z,1.40
2023-11-10T13:20:22.971Z,2.00
2023-11-10T13:22:53.484Z,1.73
2023-11-10T13:25:22.032Z,3.73
2023-11-10T13:27:50.628Z,2.83
2023-11-10T13:30:20.011Z,2.80
2023-11-10T13:32:54.162Z,3.00
2023-11-10T13:35:23.275Z,2.17
2023-11-10T13:37:52.041Z,2.23
2023-11-10T13:40:20.755Z,4.60
2023-11-10T13:42:49.404Z,3.10
2023-11-10T13:45:18.252Z,3.67
2023-11-10T13:47:46.891Z,3.77
2023-11-10T13:50:17.245Z,1.53
2023-11-10T13:52:46.158Z,4.47
2023-11-10T13:55:14.609Z,4.27
2023-11-10T13:57:43.394Z,2.97
2023-11-10T14:00:14.106Z,3.27
2023-11-10T14:02:43.456Z,5.03
2023-11-10T14:05:13.075Z,3.73
2023-11-10T14:07:42.910Z,4.87
2023-11-10T14:10:11.980Z,4.47
2023-11-10T14:12:42.861Z,3.27
2023-11-10T14:15:13.412Z,2.97
2023-11-10T14:17:42.764Z,5.67
2023-11-10T14:20:12.229Z,5.27
2023-11-10T14:22:44.503Z,3.77
2023-11-10T14:25:13.416Z,4.40
2023-11-10T14:27:42.104Z,4.70
2023-11-10T14:30:11.674Z,6.10
2023-11-10T14:32:40.313Z,2.70
2023-11-10T14:35:11.692Z,2.83
2023-11-10T14:37:42.977Z,3.93
2023-11-10T14:40:18.769Z,4.30
2023-11-10T14:42:50.931Z,6.07
2023-11-10T14:45:23.145Z,7.13
2023-11-10T14:47:53.350Z,4.40
2023-11-10T14:50:36.266Z,5.07
2023-11-10T14:53:09.677Z,3.67
2023-11-10T14:55:40.159Z,2.30
2023-11-10T14:58:08.817Z,3.77
2023-11-10T15:00:40.517Z,5.30
2023-11-10T15:03:10.874Z,4.20
2023-11-10T15:05:40.483Z,8.83
2023-11-10T15:08:09.897Z,12.23
2023-11-10T15:10:40.056Z,4.63
2023-11-10T15:13:10.454Z,10.43
2023-11-10T15:15:40.050Z,6.20
2023-11-10T15:18:11.231Z,8.13
2023-11-10T15:20:39.674Z,10.93
2023-11-10T15:23:09.249Z,13.33
2023-11-10T15:25:39.549Z,11.40
2023-11-10T15:28:08.613Z,10.00
2023-11-10T15:30:39.666Z,9.13
2023-11-10T15:33:09.581Z,9.93
2023-11-10T15:35:41.355Z,9.67
2023-11-10T15:38:10.469Z,15.47
2023-11-10T15:40:40.291Z,28.03
2023-11-10T15:43:10.793Z,11.87
2023-11-10T15:45:41.781Z,7.33
2023-11-10T15:48:10.617Z,14.00
2023-11-10T15:50:39.936Z,20.30
2023-11-10T15:53:08.448Z,25.37
2023-11-10T15:55:37.670Z,15.87
2023-11-10T15:58:07.794Z,8.90
2023-11-10T16:00:36.835Z,7.50
2023-11-10T16:03:06.306Z,11.77
2023-11-10T16:05:35.467Z,10.47
2023-11-10T16:08:06.647Z,9.80
2023-11-10T16:10:36.633Z,8.80
2023-11-10T16:13:05.792Z,7.33
2023-11-10T16:15:35.994Z,8.10
2023-11-10T16:18:04.807Z,6.03
2023-11-10T16:20:34.234Z,7.10
2023-11-10T16:23:04.392Z,4.77
2023-11-10T16:25:33.311Z,11.57
2023-11-10T16:28:01.960Z,8.67
2023-11-10T16:30:31.203Z,9.70
2023-11-10T16:33:01.461Z,10.80
2023-11-10T16:35:30.039Z,6.63
2023-11-10T16:37:58.485Z,8.60
2023-11-10T16:40:27.323Z,6.13
2023-11-10T16:42:56.278Z,7.33
2023-11-10T16:45:24.823Z,10.00
2023-11-10T16:47:54.196Z,10.50
2023-11-10T16:50:24.406Z,7.13
2023-11-10T16:52:52.797Z,5.67
2023-11-10T16:55:21.739Z,4.80
2023-11-10T16:57:50.919Z,6.63
2023-11-10T17:00:24.275Z,10.37
2023-11-10T17:02:56.159Z,6.03
2023-11-10T17:05:28.221Z,9.10
2023-11-10T17:07:57.585Z,6.67
2023-11-10T17:10:26.439Z,5.87
2023-11-10T17:12:55.510Z,7.53
2023-11-10T17:15:24.500Z,6.37
2023-11-10T17:17:52.845Z,6.77
2023-11-10T17:20:23.074Z,7.63
2023-11-10T17:22:53.429Z,6.10
2023-11-10T17:25:21.827Z,5.83
2023-11-10T17:27:50.404Z,6.60
2023-11-10T17:30:20.826Z,9.37
2023-11-10T17:32:49.430Z,8.30
2023-11-10T17:35:17.927Z,6.50
2023-11-10T17:37:47.125Z,9.07
2023-11-10T17:40:17.268Z,8.83
2023-11-10T17:42:45.950Z,8.40
2023-11-10T17:45:18.742Z,5.30
2023-11-10T17:47:48.804Z,8.00
2023-11-10T17:50:20.334Z,8.77
2023-11-10T17:52:48.772Z,8.70
2023-11-10T17:55:19.720Z,5.67
2023-11-10T17:57:48.982Z,5.87
2023-11-10T18:00:18.662Z,8.63
2023-11-10T18:02:50.304Z,8.02
2023-11-10T18:05:18.768Z,8.57
2023-11-10T18:07:47.609Z,7.20
2023-11-10T18:10:16.102Z,5.97
2023-11-10T18:12:45.879Z,6.80
2023-11-10T18:15:16.616Z,8.17
2023-11-10T18:17:45.255Z,6.93
2023-11-10T18:20:14.076Z,8.23
2023-11-10T18:22:43.015Z,8.30
2023-11-10T18:25:12.317Z,9.73
2023-11-10T18:27:41.100Z,6.57
2023-11-10T18:30:12.621Z,5.73
2023-11-10T18:32:42.704Z,9.77
2023-11-10T18:35:15.194Z,7.27
2023-11-10T18:37:43.921Z,7.43
2023-11-10T18:40:17.314Z,9.57
2023-11-10T18:42:48.778Z,6.17
2023-11-10T18:45:21.108Z,6.50
2023-11-10T18:47:51.499Z,6.77
2023-11-10T18:50:22.197Z,5.77
2023-11-10T18:52:51.165Z,4.60
2023-11-10T18:55:19.717Z,4.73
2023-11-10T18:57:50.131Z,4.27
2023-11-10T19:00:23.163Z,5.87
2023-11-10T19:02:54.600Z,4.43
2023-11-10T19:05:26.436Z,7.27
2023-11-10T19:07:54.960Z,7.80
2023-11-10T19:10:23.957Z,5.03
2023-11-10T19:12:52.577Z,5.53
2023-11-10T19:15:22.714Z,5.93
2023-11-10T19:17:51.286Z,3.67
2023-11-10T19:20:20.651Z,6.23
2023-11-10T19:22:49.359Z,4.53
2023-11-10T19:25:17.762Z,5.67
2023-11-10T19:27:46.646Z,4.10
2023-11-10T19:30:15.625Z,4.70
2023-11-10T19:32:45.479Z,4.83
2023-11-10T19:35:14.453Z,6.60
2023-11-10T19:37:44.009Z,3.80
2023-11-10T19:40:13.695Z,5.17
2023-11-10T19:42:43.831Z,3.63
2023-11-10T19:45:13.373Z,6.27
2023-11-10T19:47:42.109Z,3.70
2023-11-10T19:50:12.974Z,3.37
2023-11-10T19:52:41.622Z,4.17
2023-11-10T19:55:10.470Z,2.20
2023-11-10T19:57:38.961Z,4.07
2023-11-10T20:02:46.655Z,4.90
2023-11-10T20:05:18.168Z,3.43
2023-11-10T20:07:46.980Z,4.87
2023-11-10T20:10:15.579Z,4.23
2023-11-10T20:12:44.161Z,4.63
2023-11-10T20:15:14.949Z,4.20
2023-11-10T20:17:43.593Z,3.43
2023-11-10T20:20:14.181Z,6.43
2023-11-10T20:22:44.047Z,5.53
2023-11-10T20:25:12.629Z,4.87
2023-11-10T20:27:41.233Z,4.13
2023-11-10T20:30:11.662Z,3.53
2023-11-10T20:32:41.043Z,4.13
2023-11-10T20:35:10.302Z,6.27
2023-11-10T20:37:39.022Z,4.63
2023-11-10T20:40:11.980Z,5.50
2023-11-10T20:42:41.074Z,6.50
2023-11-10T20:45:12.111Z,7.63
2023-11-10T20:47:40.810Z,3.97
2023-11-10T20:50:10.072Z,4.80
2023-11-10T20:52:40.509Z,4.90
2023-11-10T20:55:11.253Z,6.73
2023-11-10T20:57:40.164Z,4.47
2023-11-10T21:00:10.692Z,5.77
2023-11-10T21:02:40.442Z,4.30
2023-11-10T21:05:10.694Z,5.60
2023-11-10T21:07:39.638Z,4.97
2023-11-10T21:10:13.454Z,4.27
2023-11-10T21:12:43.241Z,5.10
2023-11-10T21:15:13.319Z,3.60
2023-11-10T21:17:41.794Z,4.70
2023-11-10T21:20:11.768Z,4.67
2023-11-10T21:22:48.962Z,4.23
2023-11-10T21:25:19.288Z,4.67
2023-11-10T21:27:47.755Z,3.10
2023-11-10T21:30:16.420Z,3.10
2023-11-10T21:32:44.858Z,3.93
2023-11-10T21:35:13.705Z,2.40
2023-11-10T21:37:42.181Z,3.37
2023-11-10T21:40:11.825Z,2.80
2023-11-10T21:42:41.735Z,2.63
2023-11-10T21:45:10.595Z,3.63
2023-11-10T21:47:39.687Z,1.93
2023-11-10T21:50:10.280Z,4.63
2023-11-10T21:52:39.121Z,1.83
2023-11-10T21:55:08.165Z,2.63
2023-11-10T21:57:37.022Z,2.77
2023-11-10T22:00:10.510Z,3.00
2023-11-10T22:02:40.155Z,2.60
2023-11-10T22:05:09.970Z,4.03
2023-11-10T22:07:39.331Z,3.20
2023-11-10T22:10:10.323Z,5.07
2023-11-10T22:12:41.006Z,5.03
2023-11-10T22:15:13.661Z,3.20
2023-11-10T22:17:43.366Z,3.30
2023-11-10T22:20:13.788Z,3.33
2023-11-10T22:22:43.410Z,6.40
2023-11-10T22:25:15.604Z,5.80
2023-11-10T22:27:45.837Z,5.30
2023-11-10T22:30:16.996Z,8.37
2023-11-10T22:32:45.590Z,4.87
2023-11-10T22:35:14.751Z,4.17
2023-11-10T22:37:44.241Z,4.03
2023-11-10T22:40:14.757Z,7.80
2023-11-10T22:42:44.879Z,3.27
2023-11-10T22:45:15.287Z,2.33
2023-11-10T22:47:48.129Z,4.87
2023-11-10T22:50:16.786Z,6.77
2023-11-10T22:52:45.597Z,2.70
2023-11-10T22:55:17.311Z,3.37
2023-11-10T22:57:47.420Z,3.83
2023-11-10T23:00:28.557Z,2.03
2023-11-10T23:02:59.837Z,5.53
2023-11-10T23:05:29.031Z,2.90
2023-11-10T23:07:58.084Z,4.83
2023-11-10T23:10:27.552Z,3.03
2023-11-10T23:12:59.464Z,2.33
2023-11-10T23:15:28.646Z,3.73
2023-11-10T23:18:00.062Z,3.03
2023-11-10T23:20:34.277Z,2.87
2023-11-10T23:23:05.211Z,2.67
2023-11-10T23:25:34.679Z,4.37
2023-11-10T23:28:05.905Z,3.40
2023-11-10T23:30:35.347Z,1.40
2023-11-10T23:33:08.345Z,5.43
2023-11-10T23:35:44.611Z,2.10
2023-11-10T23:38:19.148Z,6.83
2023-11-10T23:40:47.859Z,3.40
2023-11-10T23:43:18.326Z,3.20
2023-11-10T23:45:47.040Z,3.90
2023-11-10T23:48:17.099Z,2.83
2023-11-10T23:50:46.974Z,2.53
2023-11-10T23:53:17.647Z,2.67
2023-11-10T23:55:46.580Z,3.23
2023-11-10T23:58:15.283Z,4.30
